Black Springs, Nevada
Current Conditions -  °F | °C
As of 5:55 PM on Friday 21 Nov 2014 (Local Time) from KRTS Reporting Station
Overcast Overcast  
Wind Chill: 40°   Ceiling: 8000
Heat Index: 45°   Visibility: 10mi
Dew Point: 32°   Wind: 9mph
Humidity: 61%   Direction: 280°W
Pressure: 30.05"   Gusts: NA
Location:  39.7378°N, 119.889°W
Report Text: KRTS 220155Z AUTO 28008KT 10SM SCT036 OVC080 07/00 A3005 RMK AO2
Loading
Personal Weather Stations






























Interactive Weather Map New forecast layout! Learn more

10-Day Weather Forecast

Advertisements
Track Severe Weather on mobile